Daisytown, PA (15427)

5:13 AM EDT on July 29, 2016 (GMT -0400)
Newell Borough | | Change Station

Elev 774 ft 40.08 °N, 79.90 °W | Updated 11 seconds ago

Overcast
Overcast
68.5 °F
Feels Like 68.5 °F
N
0.0
Wind Variable Wind from South

Today
High -- | Low -- °F
--% Chance of Precip.
Yesterday
High -- | Low -- °F
Precip. -- in
Pressure 29.94 in
Visibility 1.2 miles
Clouds Mostly Cloudy 200 ft
Overcast 4000 ft
Dew Point 67 °F
Humidity 95%
Rainfall 0.00 in
Snow Depth Not available.
6:15 AM 8:36 PM
Waning Crescent, 23% visible
METAR KAFJ 290855Z AUTO 00000KT 1 1/4SM BKN002 OVC040 19/19 A2994 RMK AO1 54000
Pressure 29.94 in
Visibility 1.2 miles
Clouds Mostly Cloudy 200 ft
Overcast 4000 ft
Dew Point 67 °F
Humidity 95%
Rainfall 0.00 in
Snow Depth Not available.
6:15 AM 8:36 PM
Waning Crescent, 23% visible
METAR KAFJ 290855Z AUTO 00000KT 1 1/4SM BKN002 OVC040 19/19 A2994 RMK AO1 54000

10-Day Weather Forecast

Almanac

Astronomy

Jul. 29, 2016 Rise Set
Actual Time
Civil Twilight
Nautical Twilight
Astronomical Twilight
Moon
Length of Visible Light
Length of Day
Tomorrow will be .
, % of the Moon is Illuminated

Today's Extremes

State Highs State Lows

Community

WunderPhotos

Upload Photos

1,928,300 photos uploaded!

WunderBlog® & News

Nearby

Air Quality

  Air Quality AQ Index Pollutant
Not available.

Snow Depth

Station Depth Elevation

Earthquake Activity

City Distance Mag. Time & Date
Minimum magnitude displayed is 2.5.

Coastal Water Temperatures

Place Temperature

Stations

Nearby Weather Stations

Station Location Temp. Windchill Dew Point Humidity Wind Precip. Elev Updated Type
                   

Watches & Warnings

There are currently no watches in effect.